createdAt,value
2023-03-17T00:00:43.057Z,32
2023-03-17T00:02:00.062Z,32
2023-03-17T00:03:17.087Z,33
2023-03-17T00:04:34.085Z,33
2023-03-17T00:05:51.063Z,37
2023-03-17T00:07:08.071Z,35
2023-03-17T00:08:25.081Z,35
2023-03-17T00:09:42.053Z,32
2023-03-17T00:10:59.066Z,29
2023-03-17T00:12:16.116Z,28
2023-03-17T00:13:33.052Z,26
2023-03-17T00:14:50.059Z,27
2023-03-17T00:16:07.220Z,26
2023-03-17T00:17:24.081Z,26
2023-03-17T00:18:41.073Z,26
2023-03-17T00:19:58.066Z,26
2023-03-17T00:21:15.077Z,25
2023-03-17T00:22:32.094Z,25
2023-03-17T00:23:49.069Z,24
2023-03-17T00:25:06.060Z,21
2023-03-17T00:26:23.140Z,23
2023-03-17T00:27:40.161Z,21
2023-03-17T00:28:57.081Z,24
2023-03-17T00:30:14.075Z,23
2023-03-17T00:31:31.116Z,21
2023-03-17T00:32:48.158Z,23
2023-03-17T00:34:05.117Z,20
2023-03-17T00:35:22.083Z,21
2023-03-17T00:36:39.341Z,20
2023-03-17T00:37:57.015Z,19
2023-03-17T00:39:16.677Z,19
2023-03-17T00:40:33.097Z,19
2023-03-17T00:41:50.097Z,20
2023-03-17T00:43:07.224Z,18
2023-03-17T00:44:24.118Z,18
2023-03-17T00:45:41.137Z,17
2023-03-17T00:46:58.237Z,17
2023-03-17T00:48:15.134Z,17
2023-03-17T00:49:32.217Z,17
2023-03-17T00:50:49.092Z,18
2023-03-17T00:52:06.140Z,17
2023-03-17T00:53:23.156Z,17
2023-03-17T00:54:40.118Z,17
2023-03-17T00:55:57.093Z,17
2023-03-17T00:57:14.202Z,17
2023-03-17T00:58:31.143Z,16
2023-03-17T00:59:48.366Z,17
2023-03-17T01:01:05.186Z,14
2023-03-17T01:02:22.189Z,13
2023-03-17T01:03:39.108Z,13
2023-03-17T01:05:05.635Z,14
2023-03-17T01:06:13.120Z,14
2023-03-17T01:07:30.172Z,14
2023-03-17T01:08:47.131Z,13
2023-03-17T01:10:04.162Z,13
2023-03-17T01:11:21.585Z,12
2023-03-17T01:12:38.250Z,11
2023-03-17T01:13:55.146Z,11
2023-03-17T01:15:12.166Z,11
2023-03-17T01:16:29.239Z,11
2023-03-17T01:17:46.122Z,11
2023-03-17T01:19:03.264Z,11
2023-03-17T01:20:20.139Z,12
2023-03-17T01:21:37.162Z,11
2023-03-17T01:22:54.154Z,11
2023-03-17T01:24:11.427Z,11
2023-03-17T01:25:28.166Z,10
2023-03-17T01:26:45.133Z,11
2023-03-17T01:28:02.141Z,11
2023-03-17T01:29:19.248Z,10
2023-03-17T01:30:36.196Z,9
2023-03-17T01:31:53.225Z,9
2023-03-17T01:33:10.154Z,9
2023-03-17T01:34:27.171Z,9
2023-03-17T01:35:44.267Z,9
2023-03-17T01:37:01.178Z,10
2023-03-17T01:38:18.151Z,10
2023-03-17T01:39:35.232Z,11
2023-03-17T01:40:52.200Z,10
2023-03-17T01:42:09.204Z,10
2023-03-17T01:43:26.165Z,11
2023-03-17T01:44:43.240Z,11
2023-03-17T01:46:00.226Z,11
2023-03-17T01:47:17.167Z,12
2023-03-17T01:48:34.267Z,13
2023-03-17T01:49:51.166Z,14
2023-03-17T01:51:08.183Z,13
2023-03-17T01:52:25.178Z,13
2023-03-17T01:53:42.209Z,13
2023-03-17T01:55:01.211Z,12
2023-03-17T01:56:19.636Z,12
2023-03-17T01:57:36.316Z,12
2023-03-17T01:58:53.174Z,11
2023-03-17T02:00:10.225Z,11
2023-03-17T02:01:27.699Z,10
2023-03-17T02:02:44.281Z,10
2023-03-17T02:04:01.363Z,10
2023-03-17T02:05:18.209Z,10
2023-03-17T02:06:44.655Z,10
2023-03-17T02:07:54.217Z,11
2023-03-17T02:09:11.379Z,10
2023-03-17T02:10:28.568Z,11
2023-03-17T02:11:45.293Z,10
2023-03-17T02:13:02.324Z,10
2023-03-17T02:14:19.453Z,10
2023-03-17T02:15:36.340Z,10
2023-03-17T02:16:53.379Z,10
2023-03-17T02:18:10.315Z,10
2023-03-17T02:19:27.436Z,10
2023-03-17T02:22:45.209Z,11
2023-03-17T02:24:02.298Z,11
2023-03-17T02:25:19.945Z,11
2023-03-17T02:26:37.220Z,12
2023-03-17T02:27:54.412Z,11
2023-03-17T02:29:11.343Z,12
2023-03-17T02:30:28.658Z,12
2023-03-17T02:31:45.292Z,12
2023-03-17T02:33:02.372Z,13
2023-03-17T02:34:19.362Z,13
2023-03-17T02:35:36.821Z,13
2023-03-17T02:36:54.048Z,12
2023-03-17T02:38:11.262Z,12
2023-03-17T02:39:28.228Z,10
2023-03-17T02:40:45.319Z,10
2023-03-17T02:42:02.333Z,11
2023-03-17T02:43:19.259Z,11
2023-03-17T02:44:36.246Z,11
2023-03-17T02:45:53.259Z,11
2023-03-17T02:47:10.369Z,10
2023-03-17T02:48:27.264Z,11
2023-03-17T02:49:44.567Z,11
2023-03-17T02:51:01.282Z,11
2023-03-17T02:52:18.339Z,10
2023-03-17T02:53:35.340Z,11
2023-03-17T02:54:52.327Z,11
2023-03-17T02:56:09.336Z,12
2023-03-17T02:57:26.273Z,10
2023-03-17T02:58:43.286Z,9
2023-03-17T03:00:00.365Z,10
2023-03-17T03:01:17.373Z,11
2023-03-17T03:02:34.550Z,12
2023-03-17T03:03:51.445Z,13
2023-03-17T03:05:08.273Z,13
2023-03-17T03:06:25.372Z,12
2023-03-17T03:07:42.296Z,12
2023-03-17T03:08:59.315Z,12
2023-03-17T03:10:16.266Z,12
2023-03-17T03:11:33.355Z,13
2023-03-17T03:12:50.302Z,12
2023-03-17T03:14:07.271Z,11
2023-03-17T03:15:24.286Z,11
2023-03-17T03:16:41.307Z,11
2023-03-17T03:17:58.307Z,11
2023-03-17T03:19:15.285Z,11
2023-03-17T03:20:32.475Z,12
2023-03-17T03:21:49.398Z,12
2023-03-17T03:23:06.297Z,10
2023-03-17T03:24:23.301Z,11
2023-03-17T03:25:40.285Z,11
2023-03-17T03:26:57.356Z,12
2023-03-17T03:28:14.311Z,13
2023-03-17T03:29:31.299Z,13
2023-03-17T03:30:48.370Z,11
2023-03-17T03:32:05.333Z,10
2023-03-17T03:33:22.357Z,10
2023-03-17T03:34:39.345Z,11
2023-03-17T03:35:56.388Z,11
2023-03-17T03:37:13.824Z,11
2023-03-17T03:38:30.372Z,11
2023-03-17T03:39:47.305Z,10
2023-03-17T03:41:04.602Z,10
2023-03-17T03:42:21.343Z,11
2023-03-17T03:43:38.311Z,12
2023-03-17T03:44:55.432Z,13
2023-03-17T03:46:12.350Z,14
2023-03-17T03:47:29.319Z,13
2023-03-17T03:48:46.347Z,11
2023-03-17T03:50:03.316Z,11
2023-03-17T03:51:20.421Z,12
2023-03-17T03:52:37.365Z,12
2023-03-17T03:53:54.921Z,11
2023-03-17T03:55:11.373Z,11
2023-03-17T03:56:28.409Z,10
2023-03-17T03:57:45.328Z,11
2023-03-17T03:59:02.361Z,11
2023-03-17T04:00:19.326Z,11
2023-03-17T04:01:36.463Z,11
2023-03-17T04:02:53.559Z,11
2023-03-17T04:04:10.467Z,10
2023-03-17T04:05:27.846Z,9
2023-03-17T04:06:44.462Z,9
2023-03-17T04:08:01.840Z,10
2023-03-17T04:09:18.994Z,10
2023-03-17T04:10:36.352Z,11
2023-03-17T04:11:53.343Z,10
2023-03-17T04:13:10.359Z,10
2023-03-17T04:14:27.388Z,10
2023-03-17T04:15:45.038Z,10
2023-03-17T04:17:02.360Z,10
2023-03-17T04:18:19.384Z,11
2023-03-17T04:19:36.391Z,12
2023-03-17T04:20:53.572Z,13
2023-03-17T04:22:10.380Z,12
2023-03-17T04:23:27.388Z,12
2023-03-17T04:24:44.371Z,11
2023-03-17T04:26:01.361Z,12
2023-03-17T04:27:18.387Z,13
2023-03-17T04:28:35.433Z,12
2023-03-17T04:29:52.366Z,12
2023-03-17T04:31:10.455Z,13
2023-03-17T04:32:27.397Z,12
2023-03-17T04:33:44.672Z,13
2023-03-17T04:35:01.439Z,13
2023-03-17T04:36:18.413Z,13
2023-03-17T04:37:35.599Z,13
2023-03-17T04:38:52.390Z,13
2023-03-17T04:40:09.385Z,13
2023-03-17T04:41:26.481Z,14
2023-03-17T04:42:43.375Z,14
2023-03-17T04:44:00.370Z,14
2023-03-17T04:45:17.930Z,14
2023-03-17T04:46:34.481Z,14
2023-03-17T04:47:51.618Z,16
2023-03-17T04:49:09.048Z,17
2023-03-17T04:50:26.419Z,14
2023-03-17T04:51:43.454Z,14
2023-03-17T04:53:00.461Z,14
2023-03-17T04:54:17.419Z,14
2023-03-17T04:55:34.414Z,14
2023-03-17T04:56:51.412Z,14
2023-03-17T04:58:10.316Z,13
2023-03-17T04:59:25.438Z,13
2023-03-17T05:00:42.489Z,13
2023-03-17T05:01:59.505Z,13
2023-03-17T05:03:26.289Z,13
2023-03-17T05:04:33.407Z,14
2023-03-17T05:05:50.455Z,14
2023-03-17T05:07:07.423Z,13
2023-03-17T05:08:24.428Z,14
2023-03-17T05:09:41.406Z,13
2023-03-17T05:10:58.490Z,13
2023-03-17T05:12:15.511Z,13
2023-03-17T05:13:32.510Z,12
2023-03-17T05:14:49.441Z,11
2023-03-17T05:16:06.899Z,12
2023-03-17T05:17:23.496Z,12
2023-03-17T05:18:40.431Z,11
2023-03-17T05:19:57.446Z,12
2023-03-17T05:21:14.563Z,12
2023-03-17T05:22:31.481Z,11
2023-03-17T05:23:48.437Z,12
2023-03-17T05:25:05.907Z,12
2023-03-17T05:26:22.438Z,12
2023-03-17T05:27:39.601Z,12
2023-03-17T05:28:57.276Z,14
2023-03-17T05:30:14.435Z,14
2023-03-17T05:31:31.456Z,17
2023-03-17T05:32:48.517Z,17
2023-03-17T05:34:05.477Z,16
2023-03-17T05:35:22.453Z,16
2023-03-17T05:36:40.419Z,19
2023-03-17T05:37:57.596Z,23
2023-03-17T05:39:14.855Z,24
2023-03-17T05:40:31.842Z,25
2023-03-17T05:41:48.523Z,25
2023-03-17T05:43:05.502Z,26
2023-03-17T05:44:22.504Z,31
2023-03-17T05:45:39.474Z,28
2023-03-17T05:46:57.180Z,26
2023-03-17T05:48:14.531Z,26
2023-03-17T05:49:31.467Z,25
2023-03-17T05:50:48.562Z,26
2023-03-17T05:52:05.585Z,25
2023-03-17T05:53:22.527Z,25
2023-03-17T05:54:39.653Z,26
2023-03-17T05:55:56.552Z,26
2023-03-17T05:57:13.593Z,25
2023-03-17T05:58:30.636Z,26
2023-03-17T05:59:47.523Z,25
2023-03-17T06:01:04.491Z,25
2023-03-17T06:02:21.530Z,26
2023-03-17T06:03:38.641Z,26
2023-03-17T06:04:55.598Z,26
2023-03-17T06:06:12.670Z,27
2023-03-17T06:07:41.089Z,29
2023-03-17T06:08:50.386Z,29
2023-03-17T06:10:07.757Z,29
2023-03-17T06:11:26.055Z,29
2023-03-17T06:12:42.812Z,29
2023-03-17T06:14:01.025Z,29
2023-03-17T06:15:19.217Z,28
2023-03-17T06:16:36.726Z,29
2023-03-17T06:17:53.830Z,30
2023-03-17T06:19:11.311Z,29
2023-03-17T06:20:29.444Z,29
2023-03-17T06:21:47.473Z,28
2023-03-17T06:23:05.947Z,27
2023-03-17T06:24:22.813Z,27
2023-03-17T06:25:39.816Z,27
2023-03-17T06:26:56.757Z,26
2023-03-17T06:28:13.824Z,26
2023-03-17T06:29:31.170Z,26
2023-03-17T06:30:48.876Z,27
2023-03-17T06:32:19.104Z,25
2023-03-17T06:33:22.575Z,23
2023-03-17T06:34:39.566Z,23
2023-03-17T06:35:56.629Z,21
2023-03-17T06:37:13.564Z,24
2023-03-17T06:38:30.597Z,24
2023-03-17T06:39:47.542Z,23
2023-03-17T06:41:04.598Z,24
2023-03-17T06:42:21.584Z,24
2023-03-17T06:43:38.566Z,25
2023-03-17T06:44:55.604Z,25
2023-03-17T06:46:12.572Z,25
2023-03-17T06:47:29.581Z,24
2023-03-17T06:48:46.589Z,25
2023-03-17T06:50:03.689Z,25
2023-03-17T06:51:20.670Z,25
2023-03-17T06:52:37.564Z,25
2023-03-17T06:53:54.625Z,25
2023-03-17T06:55:11.592Z,26
2023-03-17T06:56:30.404Z,27
2023-03-17T06:57:45.551Z,26
2023-03-17T06:59:02.613Z,25
2023-03-17T07:00:19.647Z,24
2023-03-17T07:01:36.638Z,24
2023-03-17T07:02:53.583Z,25
2023-03-17T07:04:10.668Z,24
2023-03-17T07:05:28.456Z,25
2023-03-17T07:06:46.164Z,24
2023-03-17T07:08:02.568Z,24
2023-03-17T07:09:19.654Z,24
2023-03-17T07:10:36.672Z,24
2023-03-17T07:11:53.622Z,25
2023-03-17T07:13:10.581Z,25
2023-03-17T07:14:27.574Z,25
2023-03-17T07:15:44.625Z,26
2023-03-17T07:17:01.594Z,27
2023-03-17T07:18:18.873Z,26
2023-03-17T07:19:36.036Z,26
2023-03-17T07:20:52.594Z,26
2023-03-17T07:22:10.695Z,26
2023-03-17T07:23:27.647Z,28
2023-03-17T07:24:44.651Z,29
2023-03-17T07:26:01.597Z,27
2023-03-17T07:27:20.235Z,27
2023-03-17T07:28:35.636Z,26
2023-03-17T07:29:52.765Z,26
2023-03-17T07:31:09.748Z,27
2023-03-17T07:32:26.730Z,26
2023-03-17T07:33:43.660Z,26
2023-03-17T07:35:00.973Z,25
2023-03-17T07:36:17.628Z,26
2023-03-17T07:37:34.670Z,25
2023-03-17T07:38:52.607Z,24
2023-03-17T07:40:09.795Z,24
2023-03-17T07:41:27.291Z,23
2023-03-17T07:42:44.672Z,24
2023-03-17T07:44:01.695Z,20
2023-03-17T07:45:18.648Z,22
2023-03-17T07:46:35.634Z,21
2023-03-17T07:47:52.884Z,21
2023-03-17T07:49:09.647Z,21
2023-03-17T07:50:26.638Z,21
2023-03-17T07:51:43.667Z,24
2023-03-17T07:53:00.711Z,25
2023-03-17T07:54:17.634Z,24
2023-03-17T07:55:34.670Z,24
2023-03-17T07:56:51.679Z,24
2023-03-17T07:58:09.211Z,25
2023-03-17T07:59:26.628Z,26
2023-03-17T08:00:43.861Z,24
2023-03-17T08:02:00.790Z,23
2023-03-17T08:03:17.823Z,23
2023-03-17T08:04:35.129Z,23
2023-03-17T08:05:51.752Z,24
2023-03-17T08:07:09.259Z,25
2023-03-17T08:08:26.725Z,26
2023-03-17T08:09:43.892Z,26
2023-03-17T08:11:00.761Z,26
2023-03-17T08:12:17.736Z,26
2023-03-17T08:13:34.713Z,26
2023-03-17T08:14:51.796Z,26
2023-03-17T08:16:08.801Z,25
2023-03-17T08:17:25.760Z,26
2023-03-17T08:18:42.774Z,26
2023-03-17T08:20:00.149Z,26
2023-03-17T08:21:18.010Z,25
2023-03-17T08:22:35.970Z,25
2023-03-17T08:23:53.072Z,24
2023-03-17T08:25:11.028Z,23
2023-03-17T08:26:28.046Z,23
2023-03-17T08:27:46.684Z,24
2023-03-17T08:29:05.543Z,24
2023-03-17T08:30:23.674Z,24
2023-03-17T08:31:41.006Z,24
2023-03-17T08:32:58.036Z,25
2023-03-17T08:34:16.170Z,27
2023-03-17T08:35:33.437Z,25
2023-03-17T08:36:50.447Z,25
2023-03-17T08:38:09.305Z,24
2023-03-17T08:39:27.029Z,26
2023-03-17T08:40:44.375Z,25
2023-03-17T08:42:03.718Z,25
2023-03-17T08:43:21.203Z,27
2023-03-17T08:44:41.789Z,28
2023-03-17T08:45:57.079Z,29
2023-03-17T08:47:13.991Z,31
2023-03-17T08:48:30.976Z,28
2023-03-17T08:49:48.043Z,28
2023-03-17T08:51:05.499Z,29
2023-03-17T08:52:22.825Z,27
2023-03-17T08:53:40.241Z,26
2023-03-17T08:54:58.360Z,26
2023-03-17T08:56:16.804Z,26
2023-03-17T08:57:34.334Z,26
2023-03-17T08:58:52.389Z,25
2023-03-17T09:00:09.989Z,24
2023-03-17T09:01:28.527Z,25
2023-03-17T09:02:46.537Z,25
2023-03-17T09:04:05.297Z,25
2023-03-17T09:05:22.221Z,25
2023-03-17T09:06:46.440Z,26
2023-03-17T09:07:57.025Z,25
2023-03-17T09:09:14.715Z,25
2023-03-17T09:10:32.316Z,24
2023-03-17T09:11:48.993Z,24
2023-03-17T09:13:06.232Z,24
2023-03-17T09:14:23.112Z,24
2023-03-17T09:15:39.982Z,24
2023-03-17T09:16:57.982Z,24
2023-03-17T09:18:15.446Z,25
2023-03-17T09:19:33.436Z,24
2023-03-17T09:20:51.486Z,24
2023-03-17T09:22:09.309Z,24
2023-03-17T09:23:27.515Z,23
2023-03-17T09:24:45.384Z,22
2023-03-17T09:26:03.333Z,21
2023-03-17T09:27:21.039Z,23
2023-03-17T09:28:38.064Z,23
2023-03-17T09:29:55.018Z,23
2023-03-17T09:31:12.339Z,21
2023-03-17T09:32:30.733Z,23
2023-03-17T09:33:48.035Z,27
2023-03-17T09:35:05.088Z,27
2023-03-17T09:36:22.410Z,27
2023-03-17T09:37:40.076Z,29
2023-03-17T09:38:57.982Z,27
2023-03-17T09:40:15.161Z,26
2023-03-17T09:41:33.258Z,30
2023-03-17T09:42:51.367Z,37
2023-03-17T09:44:09.105Z,39
2023-03-17T09:45:29.675Z,32
2023-03-17T09:46:47.406Z,28
2023-03-17T09:48:05.125Z,27
2023-03-17T09:49:22.035Z,28
2023-03-17T09:50:39.078Z,29
2023-03-17T09:51:56.087Z,28
2023-03-17T09:53:13.022Z,25
2023-03-17T09:54:30.052Z,24
2023-03-17T09:55:47.165Z,26
2023-03-17T09:57:04.090Z,27
2023-03-17T09:58:21.066Z,28
2023-03-17T09:59:38.235Z,25
2023-03-17T10:00:56.164Z,24
2023-03-17T10:02:13.364Z,25
2023-03-17T10:03:31.093Z,25
2023-03-17T10:04:48.225Z,23
2023-03-17T10:06:05.304Z,21
2023-03-17T10:07:23.655Z,21
2023-03-17T10:08:41.375Z,20
2023-03-17T10:09:59.235Z,20
2023-03-17T10:11:16.093Z,20
2023-03-17T10:12:33.056Z,20
2023-03-17T10:13:51.475Z,20
2023-03-17T10:15:08.204Z,21
2023-03-17T10:16:25.156Z,21
2023-03-17T10:17:42.179Z,24
2023-03-17T10:18:59.116Z,21
2023-03-17T10:20:16.167Z,21
2023-03-17T10:21:33.156Z,24
2023-03-17T10:22:50.121Z,24
2023-03-17T10:24:07.801Z,24
2023-03-17T10:25:25.121Z,23
2023-03-17T10:26:42.284Z,23
2023-03-17T10:27:59.104Z,21
2023-03-17T10:29:16.303Z,21
2023-03-17T10:30:34.370Z,23
2023-03-17T10:31:52.788Z,21
2023-03-17T10:33:10.792Z,21
2023-03-17T10:34:28.388Z,21
2023-03-17T10:35:45.313Z,23
2023-03-17T10:37:03.496Z,24
2023-03-17T10:38:21.497Z,24
2023-03-17T10:39:40.232Z,25
2023-03-17T10:40:57.355Z,26
2023-03-17T10:42:15.157Z,25
2023-03-17T10:43:32.775Z,25
2023-03-17T10:44:50.134Z,25
2023-03-17T10:46:07.375Z,25
2023-03-17T10:47:25.491Z,25
2023-03-17T10:48:43.354Z,24
2023-03-17T10:50:02.638Z,24
2023-03-17T10:51:20.233Z,23
2023-03-17T10:52:38.489Z,23
2023-03-17T10:53:56.709Z,25
2023-03-17T10:55:16.124Z,26
2023-03-17T10:56:33.807Z,27
2023-03-17T10:57:51.227Z,27
2023-03-17T10:59:08.188Z,25
2023-03-17T11:00:25.418Z,24
2023-03-17T11:01:43.768Z,24
2023-03-17T11:03:01.187Z,25
2023-03-17T11:04:18.212Z,26
2023-03-17T11:05:35.176Z,25
2023-03-17T11:06:52.842Z,26
2023-03-17T11:08:10.251Z,26
2023-03-17T11:09:27.151Z,25
2023-03-17T11:10:45.204Z,24
2023-03-17T11:12:02.179Z,25
2023-03-17T11:13:20.256Z,25
2023-03-17T11:14:38.243Z,24
2023-03-17T11:15:55.269Z,26
2023-03-17T11:17:12.888Z,25
2023-03-17T11:18:32.044Z,26
2023-03-17T11:19:48.238Z,25
2023-03-17T11:21:05.232Z,25
2023-03-17T11:22:22.223Z,24
2023-03-17T11:23:39.483Z,23
2023-03-17T11:24:56.279Z,23
2023-03-17T11:26:13.208Z,21
2023-03-17T11:27:31.228Z,23
2023-03-17T11:28:48.543Z,23
2023-03-17T11:30:06.318Z,21
2023-03-17T11:31:23.461Z,21
2023-03-17T11:32:41.331Z,23
2023-03-17T11:33:59.136Z,21
2023-03-17T11:35:16.355Z,21
2023-03-17T11:36:33.325Z,21
2023-03-17T11:37:50.485Z,23
2023-03-17T11:39:09.116Z,24
2023-03-17T11:40:26.728Z,25
2023-03-17T11:41:45.106Z,25
2023-03-17T11:43:02.292Z,25
2023-03-17T11:44:19.478Z,24
2023-03-17T11:45:37.405Z,24
2023-03-17T11:46:54.386Z,24
2023-03-17T11:48:12.297Z,24
2023-03-17T11:49:29.203Z,24
2023-03-17T11:50:46.304Z,24
2023-03-17T11:52:04.297Z,23
2023-03-17T11:53:21.357Z,21
2023-03-17T11:54:38.456Z,23
2023-03-17T11:55:56.323Z,21
2023-03-17T11:57:13.555Z,23
2023-03-17T11:58:31.762Z,24
2023-03-17T11:59:49.813Z,24
2023-03-17T12:01:07.753Z,24
2023-03-17T12:02:25.319Z,25
2023-03-17T12:03:43.457Z,24
2023-03-17T12:05:01.864Z,24
2023-03-17T12:06:19.427Z,24
2023-03-17T12:07:38.963Z,24
2023-03-17T12:08:56.513Z,23
2023-03-17T12:10:13.521Z,23
2023-03-17T12:11:31.557Z,21
2023-03-17T12:12:49.387Z,23
2023-03-17T12:14:07.321Z,24
2023-03-17T12:15:24.150Z,24
2023-03-17T12:16:41.240Z,23
2023-03-17T12:17:58.625Z,23
2023-03-17T12:19:16.809Z,21
2023-03-17T12:20:34.274Z,21
2023-03-17T12:21:51.318Z,21
2023-03-17T12:23:08.960Z,23
2023-03-17T12:24:26.540Z,24
2023-03-17T12:25:43.611Z,24
2023-03-17T12:27:01.793Z,25
2023-03-17T12:28:19.313Z,25
2023-03-17T12:29:37.048Z,25
2023-03-17T12:30:54.588Z,25
2023-03-17T12:32:12.531Z,24
2023-03-17T12:33:29.449Z,23
2023-03-17T12:34:51.030Z,23
2023-03-17T12:36:08.314Z,25
2023-03-17T12:37:25.329Z,24
2023-03-17T12:38:42.587Z,25
2023-03-17T12:40:00.969Z,26
2023-03-17T12:41:18.532Z,25
2023-03-17T12:42:36.763Z,25
2023-03-17T12:43:54.588Z,25
2023-03-17T12:45:12.551Z,25
2023-03-17T12:46:30.916Z,25
2023-03-17T12:47:48.839Z,27
2023-03-17T12:49:06.401Z,27
2023-03-17T12:50:23.380Z,26
2023-03-17T12:51:40.375Z,27
2023-03-17T12:52:57.550Z,27
2023-03-17T12:54:15.329Z,26
2023-03-17T12:55:32.658Z,26
2023-03-17T12:56:49.324Z,26
2023-03-17T12:58:07.344Z,27
2023-03-17T12:59:24.046Z,27
2023-03-17T13:00:41.152Z,26
2023-03-17T13:01:58.137Z,26
2023-03-17T13:03:15.148Z,27
2023-03-17T13:04:32.061Z,26
2023-03-17T13:05:49.134Z,25
2023-03-17T13:07:06.073Z,27
2023-03-17T13:08:23.069Z,26
2023-03-17T13:09:40.101Z,29
2023-03-17T13:10:57.461Z,29
2023-03-17T13:12:14.133Z,29
2023-03-17T13:13:31.066Z,28
2023-03-17T13:14:48.070Z,28
2023-03-17T13:16:05.115Z,28
2023-03-17T13:17:22.167Z,26
2023-03-17T13:18:39.073Z,26
2023-03-17T13:19:56.098Z,26
2023-03-17T13:21:13.146Z,26
2023-03-17T13:22:30.073Z,26
2023-03-17T13:23:47.156Z,26
2023-03-17T13:25:04.127Z,25
2023-03-17T13:26:21.166Z,25
2023-03-17T13:27:38.135Z,25
2023-03-17T13:28:55.125Z,26
2023-03-17T13:30:12.103Z,27
2023-03-17T13:31:29.189Z,26
2023-03-17T13:32:46.135Z,25
2023-03-17T13:34:03.144Z,25
2023-03-17T13:35:20.118Z,24
2023-03-17T13:36:37.139Z,24
2023-03-17T13:37:54.107Z,26
2023-03-17T13:39:19.142Z,26
2023-03-17T13:40:28.102Z,25
2023-03-17T13:41:45.382Z,25
2023-03-17T13:43:02.132Z,26
2023-03-17T13:44:19.183Z,26
2023-03-17T13:45:36.303Z,25
2023-03-17T13:46:53.161Z,25
2023-03-17T13:48:10.136Z,26
2023-03-17T13:49:27.159Z,26
2023-03-17T13:50:44.256Z,26
2023-03-17T13:52:01.153Z,27
2023-03-17T13:53:18.130Z,26
2023-03-17T13:54:35.205Z,27
2023-03-17T13:55:52.334Z,27
2023-03-17T13:57:09.207Z,27
2023-03-17T13:58:26.165Z,26
2023-03-17T13:59:43.180Z,26
2023-03-17T14:01:00.290Z,25
2023-03-17T14:02:17.160Z,25
2023-03-17T14:03:34.220Z,26
2023-03-17T14:04:51.136Z,26
2023-03-17T14:06:08.160Z,26
2023-03-17T14:07:25.197Z,26
2023-03-17T14:08:42.200Z,26
2023-03-17T14:09:59.150Z,25
2023-03-17T14:11:16.141Z,26
2023-03-17T14:12:33.160Z,26
2023-03-17T14:13:50.176Z,28
2023-03-17T14:15:08.452Z,29
2023-03-17T14:16:24.178Z,27
2023-03-17T14:17:41.140Z,27
2023-03-17T14:18:58.190Z,27
2023-03-17T14:20:15.222Z,28
2023-03-17T14:21:32.163Z,28
2023-03-17T14:22:50.155Z,27
2023-03-17T14:24:07.407Z,27
2023-03-17T14:25:25.068Z,26
2023-03-17T14:26:43.151Z,25
2023-03-17T14:28:00.212Z,27
2023-03-17T14:29:17.175Z,26
2023-03-17T14:30:34.225Z,27
2023-03-17T14:31:51.197Z,27
2023-03-17T14:33:08.253Z,27
2023-03-17T14:34:25.191Z,27
2023-03-17T14:35:42.279Z,28
2023-03-17T14:36:59.205Z,26
2023-03-17T14:38:16.245Z,26
2023-03-17T14:39:33.201Z,27
2023-03-17T14:40:50.242Z,27
2023-03-17T14:42:07.199Z,27
2023-03-17T14:43:24.202Z,27
2023-03-17T14:44:41.195Z,28
2023-03-17T14:45:58.374Z,27
2023-03-17T14:47:15.208Z,26
2023-03-17T14:48:32.763Z,28
2023-03-17T14:49:49.552Z,28
2023-03-17T14:51:08.472Z,27
2023-03-17T14:52:26.496Z,26
2023-03-17T14:53:43.856Z,26
2023-03-17T14:55:01.563Z,26
2023-03-17T14:56:18.990Z,27
2023-03-17T14:57:37.130Z,27
2023-03-17T14:58:54.490Z,27
2023-03-17T15:00:12.252Z,27
2023-03-17T15:01:29.676Z,28
2023-03-17T15:02:48.617Z,28
2023-03-17T15:04:06.541Z,27
2023-03-17T15:05:23.895Z,27
2023-03-17T15:08:05.060Z,27
2023-03-17T15:09:26.721Z,26
2023-03-17T15:10:43.572Z,26
2023-03-17T15:12:01.496Z,27
2023-03-17T15:13:18.672Z,26
2023-03-17T15:14:36.968Z,26
2023-03-17T15:15:54.745Z,26
2023-03-17T15:17:12.712Z,26
2023-03-17T15:18:29.985Z,29
2023-03-17T15:19:47.572Z,28
2023-03-17T15:21:04.651Z,29
2023-03-17T15:22:21.928Z,28
2023-03-17T15:23:41.228Z,27
2023-03-17T15:25:00.246Z,27
2023-03-17T15:26:18.619Z,28
2023-03-17T15:27:35.765Z,28
2023-03-17T15:28:54.010Z,27
2023-03-17T15:30:13.545Z,27
2023-03-17T15:31:31.256Z,28
2023-03-17T15:32:49.627Z,26
2023-03-17T15:34:07.651Z,28
2023-03-17T15:35:25.471Z,26
2023-03-17T15:36:42.838Z,25
2023-03-17T15:38:00.846Z,26
2023-03-17T15:39:17.941Z,25
2023-03-17T15:40:35.644Z,26
2023-03-17T15:41:53.433Z,26
2023-03-17T15:43:12.901Z,25
2023-03-17T15:44:31.578Z,26
2023-03-17T15:45:48.602Z,25
2023-03-17T15:47:07.436Z,26
2023-03-17T15:48:24.597Z,26
2023-03-17T15:49:43.249Z,25
2023-03-17T15:51:02.945Z,25
2023-03-17T15:52:20.801Z,26
2023-03-17T15:53:38.602Z,25
2023-03-17T15:54:55.798Z,25
2023-03-17T15:56:13.949Z,26
2023-03-17T15:57:31.573Z,27
2023-03-17T15:58:48.635Z,26
2023-03-17T16:00:05.396Z,24
2023-03-17T16:01:22.463Z,25
2023-03-17T16:02:39.441Z,25
2023-03-17T16:03:56.508Z,24
2023-03-17T16:05:13.378Z,24
2023-03-17T16:06:30.429Z,25
2023-03-17T16:07:47.406Z,25
2023-03-17T16:09:04.665Z,25
2023-03-17T16:10:21.373Z,24
2023-03-17T16:11:40.387Z,24
2023-03-17T16:12:55.471Z,26
2023-03-17T16:14:12.639Z,25
2023-03-17T16:15:29.424Z,23
2023-03-17T16:16:46.485Z,23
2023-03-17T16:18:03.439Z,21
2023-03-17T16:19:20.452Z,23
2023-03-17T16:20:37.403Z,24
2023-03-17T16:21:54.665Z,23
2023-03-17T16:23:11.522Z,23
2023-03-17T16:24:28.350Z,22
2023-03-17T16:25:45.884Z,21
2023-03-17T16:27:02.388Z,23
2023-03-17T16:28:19.404Z,24
2023-03-17T16:29:36.368Z,21
2023-03-17T16:30:53.419Z,21
2023-03-17T16:32:10.399Z,23
2023-03-17T16:33:27.384Z,23
2023-03-17T16:34:44.667Z,21
2023-03-17T16:36:01.493Z,23
2023-03-17T16:37:18.375Z,23
2023-03-17T16:38:35.504Z,23
2023-03-17T16:39:52.398Z,24
2023-03-17T16:41:09.373Z,23
2023-03-17T16:42:26.403Z,21
2023-03-17T16:43:43.429Z,21
2023-03-17T16:45:00.384Z,20
2023-03-17T16:46:17.775Z,21
2023-03-17T16:49:21.461Z,21
2023-03-17T16:50:38.400Z,21
2023-03-17T16:51:55.403Z,21
2023-03-17T16:53:12.435Z,21
2023-03-17T16:54:29.381Z,21
2023-03-17T16:55:46.437Z,21
2023-03-17T16:57:05.491Z,21
2023-03-17T16:58:21.452Z,21
2023-03-17T16:59:38.400Z,20
2023-03-17T17:00:55.400Z,21
2023-03-17T17:02:12.447Z,20
2023-03-17T17:03:29.516Z,21
2023-03-17T17:04:46.454Z,21
2023-03-17T17:06:03.466Z,21
2023-03-17T17:07:20.417Z,21
2023-03-17T17:08:37.800Z,20
2023-03-17T17:09:54.617Z,21
2023-03-17T17:11:11.461Z,21
2023-03-17T17:12:28.423Z,20
2023-03-17T17:13:45.649Z,20
2023-03-17T17:15:02.468Z,20
2023-03-17T17:16:19.533Z,20
2023-03-17T17:17:36.458Z,20
2023-03-17T17:18:53.469Z,21
2023-03-17T17:20:10.520Z,21
2023-03-17T17:21:27.436Z,21
2023-03-17T17:22:44.442Z,23
2023-03-17T17:24:01.451Z,24
2023-03-17T17:25:18.664Z,24
2023-03-17T17:26:35.660Z,24
2023-03-17T17:27:52.483Z,27
2023-03-17T17:29:09.467Z,26
2023-03-17T17:30:26.527Z,23
2023-03-17T17:31:43.552Z,22
2023-03-17T17:33:00.516Z,21
2023-03-17T17:34:17.436Z,21
2023-03-17T17:35:34.548Z,20
2023-03-17T17:36:51.451Z,20
2023-03-17T17:38:08.524Z,21
2023-03-17T17:39:25.663Z,21
2023-03-17T17:40:42.522Z,21
2023-03-17T17:41:59.510Z,21
2023-03-17T17:43:16.549Z,21
2023-03-17T17:44:33.499Z,20
2023-03-17T17:45:50.515Z,20
2023-03-17T17:47:07.515Z,21
2023-03-17T17:48:24.633Z,20
2023-03-17T17:49:42.458Z,20
2023-03-17T17:51:00.477Z,20
2023-03-17T17:52:17.617Z,20
2023-03-17T17:53:34.547Z,20
2023-03-17T17:54:51.570Z,21
2023-03-17T17:56:08.805Z,25
2023-03-17T17:57:25.855Z,28
2023-03-17T17:58:42.546Z,31
2023-03-17T17:59:59.555Z,28
2023-03-17T18:01:16.821Z,28
2023-03-17T18:02:33.654Z,29
2023-03-17T18:03:50.552Z,29
2023-03-17T18:05:07.659Z,25
2023-03-17T18:06:24.591Z,26
2023-03-17T18:07:41.607Z,25
2023-03-17T18:08:58.590Z,24
2023-03-17T18:10:15.531Z,25
2023-03-17T18:11:32.540Z,25
2023-03-17T18:12:49.558Z,24
2023-03-17T18:14:06.588Z,21
2023-03-17T18:15:23.640Z,20
2023-03-17T18:16:40.620Z,23
2023-03-17T18:17:57.608Z,20
2023-03-17T18:19:14.565Z,19
2023-03-17T18:20:31.766Z,20
2023-03-17T18:21:48.586Z,19
2023-03-17T18:23:05.607Z,21
2023-03-17T18:24:22.671Z,20
2023-03-17T18:25:39.550Z,18
2023-03-17T18:26:56.590Z,19